createdAt,value
2023-03-19T00:01:05.940Z,19840.25
2023-03-19T00:03:34.238Z,19846.34
2023-03-19T00:06:03.961Z,19799.63
2023-03-19T00:08:32.118Z,19834.16
2023-03-19T00:11:00.323Z,19856.53
2023-03-19T00:13:28.751Z,19838.22
2023-03-19T00:15:56.925Z,19866.69
2023-03-19T00:18:25.179Z,19836.19
2023-03-19T00:20:53.339Z,19860.59
2023-03-19T00:23:22.860Z,19858.56
2023-03-19T00:25:50.987Z,19832.13
2023-03-19T00:28:19.234Z,19801.66
2023-03-19T00:30:47.465Z,19921.56
2023-03-19T00:33:15.781Z,19840.25
2023-03-19T00:35:44.000Z,19819.94
2023-03-19T00:38:12.160Z,19858.56
2023-03-19T00:40:42.575Z,19858.56
2023-03-19T00:43:10.828Z,19846.34
2023-03-19T00:45:38.998Z,19860.59
2023-03-19T00:48:07.965Z,19858.56
2023-03-19T00:50:36.389Z,19889.03
2023-03-19T00:53:04.653Z,19860.59
2023-03-19T00:55:33.109Z,19858.56
2023-03-19T00:58:02.824Z,19862.63
2023-03-19T01:00:30.931Z,19864.66
2023-03-19T01:02:59.044Z,19874.81
2023-03-19T01:05:27.890Z,19862.63
2023-03-19T01:07:56.256Z,19878.88
2023-03-19T01:10:26.011Z,19905.28
2023-03-19T01:12:54.296Z,19909.34
2023-03-19T01:15:23.855Z,19884.97
2023-03-19T01:17:52.063Z,19878.88
2023-03-19T01:20:23.926Z,19891.06
2023-03-19T01:22:52.206Z,19901.22
2023-03-19T01:25:20.550Z,19907.31
2023-03-19T01:27:48.718Z,19913.44
2023-03-19T01:30:18.545Z,19915.47
2023-03-19T01:32:48.311Z,19903.25
2023-03-19T01:35:17.023Z,19913.44
2023-03-19T01:37:45.178Z,19909.34
2023-03-19T01:40:15.511Z,19872.78
2023-03-19T01:42:55.664Z,19917.50
2023-03-19T01:45:38.574Z,19891.06
2023-03-19T01:48:20.099Z,19915.47
2023-03-19T01:50:53.887Z,19878.88
2023-03-19T01:53:27.419Z,19876.84
2023-03-19T01:56:03.907Z,19874.81
2023-03-19T01:58:32.405Z,19880.91
2023-03-19T02:01:00.578Z,19878.88
2023-03-19T02:03:31.177Z,19862.63
2023-03-19T02:06:01.005Z,19878.88
2023-03-19T02:08:30.766Z,19842.28
2023-03-19T02:11:00.413Z,19858.56
2023-03-19T02:13:29.046Z,19887.00
2023-03-19T02:15:58.196Z,19891.06
2023-03-19T02:18:27.173Z,19874.81
2023-03-19T02:21:06.790Z,19864.66
2023-03-19T02:23:46.776Z,19880.91
2023-03-19T02:26:18.651Z,19911.41
2023-03-19T02:28:49.694Z,19882.94
2023-03-19T02:31:18.645Z,19846.34
2023-03-19T02:33:57.478Z,19854.50
2023-03-19T02:36:31.458Z,19889.03
2023-03-19T02:39:03.524Z,19842.28
2023-03-19T02:41:35.266Z,19884.97
2023-03-19T02:44:05.751Z,19842.28
2023-03-19T02:46:34.026Z,19905.28
2023-03-19T02:49:02.405Z,19907.31
2023-03-19T02:51:30.622Z,19889.03
2023-03-19T02:54:00.801Z,19917.50
2023-03-19T02:56:28.992Z,19876.84
2023-03-19T02:58:58.467Z,19887.00
2023-03-19T03:01:26.731Z,19866.69
2023-03-19T03:03:55.072Z,19846.34
2023-03-19T03:06:23.202Z,19884.97
2023-03-19T03:08:52.100Z,19919.53
2023-03-19T03:11:20.308Z,19856.53
2023-03-19T03:13:48.414Z,19850.41
2023-03-19T03:16:18.373Z,19878.88
2023-03-19T03:18:46.483Z,19915.47
2023-03-19T03:21:15.215Z,19909.34
2023-03-19T03:23:43.344Z,19901.22
2023-03-19T03:26:11.423Z,19866.69
2023-03-19T03:28:39.608Z,19882.94
2023-03-19T03:31:07.966Z,19876.84
2023-03-19T03:33:37.727Z,19893.09
2023-03-19T03:36:06.624Z,19884.97
2023-03-19T03:38:34.880Z,19917.50
2023-03-19T03:41:03.380Z,19913.44
2023-03-19T03:43:31.528Z,19923.59
2023-03-19T03:45:59.669Z,19911.41
2023-03-19T03:48:28.530Z,19937.81
2023-03-19T03:50:58.016Z,19929.69
2023-03-19T03:53:26.278Z,19954.06
2023-03-19T03:55:54.398Z,19954.06
2023-03-19T03:58:23.932Z,19915.47
2023-03-19T04:00:52.340Z,19903.25
2023-03-19T04:03:20.491Z,19891.06
2023-03-19T04:05:48.595Z,19893.09
2023-03-19T04:08:18.240Z,19899.19
2023-03-19T04:10:46.368Z,19903.25
2023-03-19T04:13:14.803Z,19887.00
2023-03-19T04:15:44.310Z,19866.69
2023-03-19T04:18:12.446Z,19874.81
2023-03-19T04:20:41.211Z,19882.94
2023-03-19T04:23:09.310Z,19850.41
2023-03-19T04:25:41.137Z,19864.66
2023-03-19T04:28:10.340Z,19826.03
2023-03-19T04:30:38.877Z,19830.09
2023-03-19T04:33:07.288Z,19882.94
2023-03-19T04:35:36.266Z,19854.50
2023-03-19T04:38:05.434Z,19813.84
2023-03-19T04:40:33.889Z,19807.75
2023-03-19T04:43:03.774Z,19828.06
2023-03-19T04:45:32.251Z,19805.72
2023-03-19T04:48:00.372Z,19787.41
2023-03-19T04:50:29.225Z,19795.53
2023-03-19T04:52:57.553Z,19783.34
2023-03-19T04:55:25.695Z,19752.88
2023-03-19T04:57:53.825Z,19732.53
2023-03-19T05:00:23.692Z,19718.31
2023-03-19T05:02:51.919Z,19726.44
2023-03-19T05:05:20.031Z,19728.47
2023-03-19T05:07:48.277Z,19720.34
2023-03-19T05:10:16.661Z,19722.38
2023-03-19T05:12:44.793Z,19695.97
2023-03-19T05:15:13.418Z,19714.25
2023-03-19T05:17:43.840Z,19708.16
2023-03-19T05:20:14.319Z,19671.56
2023-03-19T05:22:42.515Z,19704.09
2023-03-19T05:25:11.082Z,19693.94
2023-03-19T05:27:39.289Z,19677.66
2023-03-19T05:30:10.903Z,19728.47
2023-03-19T05:32:40.669Z,19714.25
2023-03-19T05:35:11.249Z,19710.19
2023-03-19T05:37:39.822Z,19732.53
2023-03-19T05:40:08.995Z,19740.69
2023-03-19T05:42:37.888Z,19769.13
2023-03-19T05:45:07.040Z,19785.38
2023-03-19T05:47:35.396Z,19771.16
2023-03-19T05:50:03.674Z,19793.50
2023-03-19T05:52:33.230Z,19773.19
2023-03-19T05:55:01.442Z,19781.31
2023-03-19T05:57:29.874Z,19801.66
2023-03-19T05:59:58.214Z,19781.31
2023-03-19T06:02:26.974Z,19750.84
2023-03-19T06:04:55.098Z,19787.41
2023-03-19T06:07:23.240Z,19748.81
2023-03-19T06:09:52.902Z,19785.38
2023-03-19T06:12:21.880Z,19797.59
2023-03-19T06:14:50.080Z,19805.72
2023-03-19T06:17:18.364Z,19793.50
2023-03-19T06:19:46.507Z,19826.03
2023-03-19T06:22:14.661Z,19789.44
2023-03-19T06:24:42.969Z,19834.16
2023-03-19T06:27:12.953Z,19834.16
2023-03-19T06:29:41.103Z,19834.16
2023-03-19T06:32:10.833Z,19840.25
2023-03-19T06:34:38.979Z,19834.16
2023-03-19T06:37:07.469Z,19850.41
2023-03-19T06:39:35.618Z,19905.28
2023-03-19T06:42:03.745Z,19927.66
2023-03-19T06:44:33.499Z,19956.09
2023-03-19T06:47:01.584Z,19937.81
2023-03-19T06:49:29.689Z,19960.16
2023-03-19T06:51:57.820Z,19921.56
2023-03-19T06:54:26.068Z,20015.03
2023-03-19T06:56:54.206Z,19982.53
2023-03-19T06:59:22.642Z,20002.84
2023-03-19T07:01:52.484Z,20002.84
2023-03-19T07:04:21.379Z,20023.19
2023-03-19T07:06:49.564Z,20006.91
2023-03-19T07:09:17.774Z,20015.03
2023-03-19T07:11:46.008Z,20017.09
2023-03-19T07:14:14.161Z,19994.72
2023-03-19T07:16:42.319Z,20067.88
2023-03-19T07:19:11.864Z,20025.22
2023-03-19T07:21:40.293Z,20033.34
2023-03-19T07:24:08.738Z,20053.66
2023-03-19T07:26:36.902Z,20045.53
2023-03-19T07:29:05.025Z,20049.59
2023-03-19T07:31:33.287Z,20067.88
2023-03-19T07:34:01.440Z,20116.66
2023-03-19T07:36:31.370Z,20155.28
2023-03-19T07:38:59.532Z,20114.63
2023-03-19T07:41:27.652Z,20130.91
2023-03-19T07:43:55.900Z,20226.44
2023-03-19T07:46:24.121Z,20157.31
2023-03-19T07:48:52.585Z,20210.16
2023-03-19T07:51:21.327Z,20151.22
2023-03-19T07:53:50.786Z,20181.72
2023-03-19T07:56:18.912Z,20165.44
2023-03-19T07:58:47.014Z,20191.88
2023-03-19T08:01:15.434Z,20175.63
2023-03-19T08:03:43.836Z,20187.81
2023-03-19T08:06:12.468Z,20155.28
2023-03-19T08:08:41.047Z,20202.03
2023-03-19T08:11:10.778Z,20197.97
2023-03-19T08:13:38.960Z,20179.69
2023-03-19T08:16:08.536Z,20228.47
2023-03-19T08:18:36.926Z,20212.19
2023-03-19T08:21:05.737Z,20216.25
2023-03-19T08:23:33.887Z,20271.16
2023-03-19T08:26:02.186Z,20281.31
2023-03-19T08:28:31.729Z,20297.56
2023-03-19T08:30:59.929Z,20389.03
2023-03-19T08:33:28.208Z,20382.94
2023-03-19T08:36:07.810Z,20413.44
2023-03-19T08:38:36.132Z,20476.44
2023-03-19T08:41:04.438Z,20500.84
2023-03-19T08:43:36.609Z,20521.16
2023-03-19T08:46:05.950Z,20531.31
2023-03-19T08:48:34.357Z,20588.25
2023-03-19T08:51:04.501Z,20574.00
2023-03-19T08:53:34.110Z,20565.88
2023-03-19T08:56:06.149Z,20557.75
2023-03-19T08:58:36.269Z,20590.28
2023-03-19T09:01:09.996Z,20545.56
2023-03-19T09:03:38.693Z,20519.13
2023-03-19T09:06:10.793Z,20525.22
2023-03-19T09:08:39.621Z,20531.31
2023-03-19T09:11:08.095Z,20608.56
2023-03-19T09:13:38.485Z,20567.91
2023-03-19T09:16:07.892Z,20551.66
2023-03-19T09:18:36.607Z,20511.00
2023-03-19T09:21:05.947Z,20508.97
2023-03-19T09:23:34.517Z,20537.44
2023-03-19T09:26:02.800Z,20523.19
2023-03-19T09:28:31.132Z,20543.53
2023-03-19T09:31:06.924Z,20541.50
2023-03-19T09:33:35.270Z,20592.31
2023-03-19T09:36:03.553Z,20594.34
2023-03-19T09:38:31.719Z,20582.16
2023-03-19T09:41:11.309Z,20594.34
2023-03-19T09:44:01.349Z,20598.41
2023-03-19T09:46:43.321Z,20641.09
2023-03-19T09:49:23.090Z,20702.09
2023-03-19T09:51:55.940Z,20706.16
2023-03-19T09:54:36.235Z,20744.78
2023-03-19T09:57:05.388Z,20724.44
2023-03-19T09:59:33.698Z,20728.50
2023-03-19T10:02:41.395Z,20773.22
2023-03-19T10:05:27.022Z,20677.69
2023-03-19T10:08:33.726Z,20712.25
2023-03-19T10:11:25.911Z,20740.69
2023-03-19T10:14:17.046Z,20761.03
2023-03-19T10:16:52.043Z,20789.50
2023-03-19T10:19:32.406Z,20797.63
2023-03-19T10:22:08.789Z,20824.06
2023-03-19T10:24:41.470Z,20830.16
2023-03-19T10:27:15.756Z,20836.25
2023-03-19T10:29:44.165Z,20852.50
2023-03-19T10:32:21.185Z,20832.19
2023-03-19T10:34:53.856Z,20860.66
2023-03-19T10:37:25.490Z,20891.13
2023-03-19T10:39:57.912Z,20858.59
2023-03-19T10:42:57.358Z,20870.81
2023-03-19T10:45:29.182Z,20846.41
2023-03-19T10:47:59.439Z,20844.38
2023-03-19T10:50:36.153Z,20789.50
2023-03-19T10:53:22.302Z,20797.63
2023-03-19T10:55:55.958Z,20797.63
2023-03-19T10:58:28.268Z,20824.06
2023-03-19T11:00:59.612Z,20885.03
2023-03-19T11:03:34.450Z,20848.44
2023-03-19T11:06:18.447Z,20891.13
2023-03-19T11:08:56.864Z,20838.28
2023-03-19T11:11:36.800Z,20899.28
2023-03-19T11:14:11.139Z,20891.13
2023-03-19T11:16:57.272Z,20830.16
2023-03-19T11:19:29.519Z,20803.72
2023-03-19T11:22:11.056Z,20836.25
2023-03-19T11:24:41.393Z,20838.28
2023-03-19T11:27:11.485Z,20830.16
2023-03-19T11:29:44.318Z,20893.16
2023-03-19T11:32:46.658Z,20854.53
2023-03-19T11:35:22.305Z,20929.75
2023-03-19T11:38:00.652Z,20897.25
2023-03-19T11:40:43.785Z,20921.63
2023-03-19T11:43:45.463Z,20899.28
2023-03-19T11:46:37.529Z,20815.91
2023-03-19T11:49:54.405Z,20834.22
2023-03-19T11:52:33.832Z,20824.06
2023-03-19T11:55:22.172Z,20826.09
2023-03-19T11:58:23.744Z,20848.44
2023-03-19T12:00:53.863Z,20935.88
2023-03-19T12:04:02.721Z,20911.47
2023-03-19T12:06:47.665Z,20950.09
2023-03-19T12:09:29.110Z,20988.72
2023-03-19T12:12:13.086Z,21068.00
2023-03-19T12:15:00.791Z,21045.63
2023-03-19T12:17:47.245Z,21039.53
2023-03-19T12:20:46.726Z,21063.94
2023-03-19T12:23:35.844Z,21023.28
2023-03-19T12:26:08.791Z,20958.22
2023-03-19T12:28:49.271Z,20939.94
2023-03-19T12:32:01.464Z,20925.69
2023-03-19T12:34:36.525Z,20826.09
2023-03-19T12:37:22.503Z,20809.81
2023-03-19T12:40:07.556Z,20754.94
2023-03-19T12:42:41.058Z,20730.53
2023-03-19T12:45:30.384Z,20748.84
2023-03-19T12:48:06.309Z,20789.50
2023-03-19T12:50:39.646Z,20803.72
2023-03-19T12:53:15.785Z,20793.56
2023-03-19T12:55:51.385Z,20728.50
2023-03-19T12:58:28.236Z,20720.38
2023-03-19T13:01:08.874Z,20677.69
2023-03-19T13:03:51.565Z,20667.53
2023-03-19T13:06:26.022Z,20576.03
2023-03-19T13:09:03.009Z,20590.28
2023-03-19T13:11:45.179Z,20578.09
2023-03-19T13:14:26.621Z,20521.16
2023-03-19T13:17:08.484Z,20596.38
2023-03-19T13:19:47.078Z,20610.59
2023-03-19T13:22:22.417Z,20571.97
2023-03-19T13:24:53.399Z,20630.94
2023-03-19T13:27:27.156Z,20537.44
2023-03-19T13:30:08.510Z,20567.91
2023-03-19T13:32:44.333Z,20519.13
2023-03-19T13:35:40.599Z,20470.34
2023-03-19T13:38:21.117Z,20399.19
2023-03-19T13:40:52.039Z,20378.88
2023-03-19T13:43:54.362Z,20360.59
2023-03-19T13:46:39.781Z,20382.94
2023-03-19T13:49:33.580Z,20350.41
2023-03-19T13:52:30.289Z,20315.88
2023-03-19T13:55:32.656Z,20273.19
2023-03-19T13:58:38.350Z,20218.31
2023-03-19T14:01:10.408Z,20206.09
2023-03-19T14:03:54.208Z,20191.88
2023-03-19T14:06:39.845Z,20193.91
2023-03-19T14:09:48.530Z,20171.56
2023-03-19T14:12:32.841Z,20173.59
2023-03-19T14:15:05.847Z,20224.41
2023-03-19T14:17:37.505Z,20159.34
2023-03-19T14:20:37.365Z,20139.03
2023-03-19T14:23:41.262Z,20163.41
2023-03-19T14:26:22.865Z,20147.16
2023-03-19T14:29:00.370Z,20151.22
2023-03-19T14:31:36.213Z,20130.91
2023-03-19T14:34:19.160Z,20126.84
2023-03-19T14:36:53.863Z,20110.56
2023-03-19T14:39:27.419Z,20120.75
2023-03-19T14:42:06.161Z,20108.53
2023-03-19T14:45:32.596Z,20061.78
2023-03-19T14:48:38.795Z,20118.69
2023-03-19T14:51:58.920Z,20118.69
2023-03-19T14:54:41.987Z,20092.28
2023-03-19T14:57:18.016Z,20067.88
2023-03-19T14:59:46.781Z,20063.81
2023-03-19T15:02:34.765Z,20092.28
2023-03-19T15:05:08.577Z,20102.44
2023-03-19T15:07:41.517Z,20118.69
2023-03-19T15:10:20.154Z,20082.13
2023-03-19T15:13:08.570Z,20126.84
2023-03-19T15:15:54.212Z,20143.09
2023-03-19T15:18:23.447Z,20147.16
2023-03-19T15:20:55.318Z,20163.41
2023-03-19T15:23:28.603Z,20130.91
2023-03-19T15:26:01.766Z,20102.44
2023-03-19T15:28:34.537Z,20094.31
2023-03-19T15:31:28.650Z,20114.63
2023-03-19T15:33:55.112Z,20090.25
2023-03-19T15:36:29.964Z,20082.13
2023-03-19T15:39:04.073Z,20126.84
2023-03-19T15:41:40.214Z,20067.88
2023-03-19T15:44:18.751Z,20057.72
2023-03-19T15:46:49.541Z,20100.41
2023-03-19T15:49:26.282Z,20120.75
2023-03-19T15:52:03.007Z,20096.34
2023-03-19T15:54:31.284Z,20102.44
2023-03-19T15:57:00.876Z,20139.03
2023-03-19T15:59:31.876Z,20106.50
2023-03-19T16:02:03.625Z,20118.69
2023-03-19T16:04:37.911Z,20092.28
2023-03-19T16:07:26.940Z,20118.69
2023-03-19T16:09:55.459Z,20106.50
2023-03-19T16:12:39.309Z,20023.19
2023-03-19T16:15:29.395Z,20063.81
2023-03-19T16:18:10.629Z,20027.25
2023-03-19T16:20:45.865Z,20010.97
2023-03-19T16:23:19.399Z,20037.41
2023-03-19T16:25:48.375Z,20041.47
2023-03-19T16:28:23.769Z,20049.59
2023-03-19T16:30:52.910Z,20047.56
2023-03-19T16:33:21.143Z,20013.00
2023-03-19T16:35:53.046Z,20047.56
2023-03-19T16:38:25.997Z,20025.22
2023-03-19T16:41:23.927Z,20065.84
2023-03-19T16:43:55.256Z,20049.59
2023-03-19T16:46:24.718Z,20078.06
2023-03-19T16:48:52.770Z,20053.66
2023-03-19T16:51:22.667Z,20021.16
2023-03-19T16:53:51.019Z,20000.81
2023-03-19T16:56:19.211Z,19988.63
2023-03-19T16:58:48.181Z,19994.72
2023-03-19T17:01:21.256Z,19978.47
2023-03-19T17:03:50.628Z,19990.66
2023-03-19T17:06:20.074Z,20015.03
2023-03-19T17:08:48.465Z,19988.63
2023-03-19T17:11:25.683Z,19984.56
2023-03-19T17:13:55.479Z,19998.78
2023-03-19T17:16:25.604Z,19970.34
2023-03-19T17:18:54.448Z,19960.16
2023-03-19T17:21:27.015Z,19964.25
2023-03-19T17:23:56.028Z,19954.06
2023-03-19T17:26:26.777Z,19915.47
2023-03-19T17:28:56.119Z,19947.97
2023-03-19T17:31:31.473Z,19927.66
2023-03-19T17:34:04.413Z,19933.75
2023-03-19T17:36:33.478Z,19960.16
2023-03-19T17:39:01.882Z,19945.94
2023-03-19T17:41:32.823Z,19927.66
2023-03-19T17:44:02.913Z,19931.72
2023-03-19T17:46:39.663Z,19935.78
2023-03-19T17:49:13.329Z,19952.03
2023-03-19T17:51:41.436Z,19905.28
2023-03-19T17:54:13.457Z,19901.22
2023-03-19T17:56:43.384Z,19931.72
2023-03-19T17:59:12.146Z,19939.84
2023-03-19T18:01:43.966Z,19919.53
2023-03-19T18:04:16.705Z,19874.81
2023-03-19T18:06:49.531Z,19895.13
2023-03-19T18:09:22.467Z,19878.88
2023-03-19T18:11:51.467Z,19870.75
2023-03-19T18:14:19.622Z,19870.75
2023-03-19T18:16:49.323Z,19864.66
2023-03-19T18:19:25.835Z,19882.94
2023-03-19T18:21:53.916Z,19884.97
2023-03-19T18:24:21.997Z,19907.31
2023-03-19T18:26:50.355Z,19870.75
2023-03-19T18:29:18.438Z,19860.59
2023-03-19T18:31:52.114Z,19872.78
2023-03-19T18:34:20.491Z,19878.88
2023-03-19T18:36:48.616Z,19866.69
2023-03-19T18:39:17.450Z,19848.38
2023-03-19T18:41:45.746Z,19848.38
2023-03-19T18:44:13.855Z,19860.59
2023-03-19T18:46:43.087Z,19856.53
2023-03-19T18:49:25.077Z,19862.63
2023-03-19T18:52:02.757Z,19889.03
2023-03-19T18:54:32.782Z,19862.63
2023-03-19T18:57:02.680Z,19826.03
2023-03-19T18:59:33.940Z,19789.44
2023-03-19T19:02:20.275Z,19836.19
2023-03-19T19:04:49.883Z,19817.91
2023-03-19T19:07:18.168Z,19771.16
2023-03-19T19:09:46.444Z,19779.28
2023-03-19T19:12:19.015Z,19773.19
2023-03-19T19:14:47.614Z,19748.81
2023-03-19T19:17:18.497Z,19775.22
2023-03-19T19:19:46.771Z,19730.50
2023-03-19T19:22:18.748Z,19738.66
2023-03-19T19:24:47.660Z,19738.66
2023-03-19T19:27:19.973Z,19734.56
2023-03-19T19:29:48.905Z,19726.44
2023-03-19T19:32:24.550Z,19728.47
2023-03-19T19:34:53.098Z,19693.94
2023-03-19T19:37:24.236Z,19726.44
2023-03-19T19:39:53.493Z,19744.75
2023-03-19T19:42:23.712Z,19712.22
2023-03-19T19:44:55.287Z,19734.56
2023-03-19T19:47:23.532Z,19710.19
2023-03-19T19:49:51.909Z,19734.56
2023-03-19T19:52:22.141Z,19730.50
2023-03-19T19:54:51.839Z,19687.84
2023-03-19T19:57:24.607Z,19671.56
2023-03-19T19:59:55.318Z,19661.41
2023-03-19T20:02:29.531Z,19710.19
2023-03-19T20:04:58.649Z,19693.94
2023-03-19T20:07:28.136Z,19677.66
2023-03-19T20:09:56.291Z,19647.19
2023-03-19T20:12:29.284Z,19665.47
2023-03-19T20:14:58.569Z,19675.63
2023-03-19T20:17:27.362Z,19708.16
2023-03-19T20:19:55.703Z,19700.03
2023-03-19T20:22:23.760Z,19671.56
2023-03-19T20:24:53.144Z,19679.72
2023-03-19T20:27:33.619Z,19679.72
2023-03-19T20:30:01.798Z,19677.66
2023-03-19T20:32:36.189Z,19689.88
2023-03-19T20:35:08.286Z,19695.97
2023-03-19T20:37:36.370Z,19655.31
2023-03-19T20:40:07.153Z,19671.56
2023-03-19T20:42:35.693Z,19647.19
2023-03-19T20:45:04.506Z,19620.78
2023-03-19T20:47:33.313Z,19604.50
2023-03-19T20:50:01.838Z,19635.00
2023-03-19T20:52:30.825Z,19598.41
2023-03-19T20:54:59.181Z,19586.22
2023-03-19T20:57:30.678Z,19572.00
2023-03-19T21:00:04.100Z,19592.31
2023-03-19T21:02:32.351Z,19578.09
2023-03-19T21:05:01.065Z,19628.91
2023-03-19T21:07:33.431Z,19549.63
2023-03-19T21:10:07.072Z,19563.88
2023-03-19T21:12:36.801Z,19553.72
2023-03-19T21:15:06.409Z,19559.81
2023-03-19T21:17:34.875Z,19574.03
2023-03-19T21:20:03.037Z,19537.44
2023-03-19T21:22:32.810Z,19580.13
2023-03-19T21:25:06.854Z,19561.84
2023-03-19T21:27:38.171Z,19567.94
2023-03-19T21:30:08.419Z,19590.28
2023-03-19T21:32:36.495Z,19606.53
2023-03-19T21:35:04.977Z,19598.41
2023-03-19T21:37:33.461Z,19628.91
2023-03-19T21:40:02.032Z,19622.81
2023-03-19T21:42:32.796Z,19655.31
2023-03-19T21:45:02.433Z,19622.81
2023-03-19T21:47:30.520Z,19618.75
2023-03-19T21:50:00.223Z,19632.97
2023-03-19T21:52:28.476Z,19645.16
2023-03-19T21:54:56.955Z,19637.03
2023-03-19T21:57:26.009Z,19665.47
2023-03-19T21:59:54.169Z,19687.84
2023-03-19T22:02:43.393Z,19632.97
2023-03-19T22:05:21.315Z,19645.16
2023-03-19T22:07:50.057Z,19643.13
2023-03-19T22:10:19.782Z,19651.25
2023-03-19T22:12:49.648Z,19687.84
2023-03-19T22:15:29.193Z,19655.31
2023-03-19T22:17:59.832Z,19655.31
2023-03-19T22:20:28.710Z,19671.56
2023-03-19T22:22:58.262Z,19687.84
2023-03-19T22:25:35.325Z,19687.84
2023-03-19T22:28:16.554Z,19673.59
2023-03-19T22:30:45.270Z,19673.59
2023-03-19T22:33:19.246Z,19604.50
2023-03-19T22:35:49.589Z,19657.34
2023-03-19T22:38:18.913Z,19653.28
2023-03-19T22:40:50.933Z,19663.44
2023-03-19T22:43:28.281Z,19639.06
2023-03-19T22:46:00.800Z,19639.06
2023-03-19T22:48:30.456Z,19618.75
2023-03-19T22:50:58.811Z,19614.66
2023-03-19T22:53:29.722Z,19653.28
2023-03-19T22:55:58.877Z,19663.44
2023-03-19T22:58:27.824Z,19655.31
2023-03-19T23:00:57.252Z,19655.31
2023-03-19T23:03:28.321Z,19635.00
2023-03-19T23:06:02.317Z,19667.50
2023-03-19T23:08:30.713Z,19671.56
2023-03-19T23:10:59.146Z,19687.84
2023-03-19T23:13:27.311Z,19659.38
2023-03-19T23:16:00.198Z,19663.44
2023-03-19T23:18:32.910Z,19687.84
2023-03-19T23:21:03.582Z,19691.91
2023-03-19T23:23:33.565Z,19671.56
2023-03-19T23:26:01.928Z,19620.78
2023-03-19T23:28:34.040Z,19651.25
2023-03-19T23:31:03.846Z,19639.06
2023-03-19T23:33:32.049Z,19651.25
2023-03-19T23:36:00.600Z,19651.25
2023-03-19T23:38:30.120Z,19681.75
2023-03-19T23:40:58.740Z,19744.75
2023-03-19T23:43:29.882Z,19673.59
2023-03-19T23:45:58.762Z,19667.50
2023-03-19T23:48:33.609Z,19649.22
2023-03-19T23:51:02.156Z,19653.28
2023-03-19T23:53:32.019Z,19663.44
2023-03-19T23:56:04.659Z,19659.38
2023-03-19T23:58:40.160Z,19665.47
